createdAt,value
2023-04-01T00:00:03.259Z,0.00
2023-04-01T00:01:03.352Z,0.00
2023-04-01T00:02:03.695Z,0.00
2023-04-01T00:03:03.584Z,0.00
2023-04-01T00:04:03.653Z,0.00
2023-04-01T00:05:03.658Z,0.00
2023-04-01T00:06:03.751Z,0.00
2023-04-01T00:07:03.858Z,0.00
2023-04-01T00:08:03.919Z,0.00
2023-04-01T00:09:04.037Z,0.00
2023-04-01T00:10:04.109Z,0.00
2023-04-01T00:11:04.180Z,0.00
2023-04-01T00:12:04.362Z,0.00
2023-04-01T00:13:04.325Z,0.00
2023-04-01T00:14:04.393Z,0.00
2023-04-01T00:15:04.476Z,0.00
2023-04-01T00:16:13.365Z,0.00
2023-04-01T00:17:04.727Z,0.00
2023-04-01T00:18:04.704Z,0.00
2023-04-01T00:19:04.794Z,0.00
2023-04-01T00:20:04.849Z,0.00
2023-04-01T00:21:04.948Z,0.00
2023-04-01T00:22:05.033Z,0.00
2023-04-01T00:23:05.103Z,0.00
2023-04-01T00:24:05.182Z,0.00
2023-04-01T00:25:05.275Z,0.00
2023-04-01T00:26:05.334Z,0.00
2023-04-01T00:27:05.425Z,0.00
2023-04-01T00:28:05.470Z,0.00
2023-04-01T00:29:05.605Z,0.00
2023-04-01T00:30:05.649Z,0.00
2023-04-01T00:31:05.757Z,0.00
2023-04-01T00:32:05.848Z,0.00
2023-04-01T00:33:05.993Z,0.00
2023-04-01T00:34:05.915Z,0.00
2023-04-01T00:35:05.991Z,0.00
2023-04-01T00:36:06.078Z,0.00
2023-04-01T00:37:06.165Z,0.00
2023-04-01T00:38:06.227Z,0.00
2023-04-01T00:39:06.331Z,0.00
2023-04-01T00:40:06.431Z,0.00
2023-04-01T00:41:06.501Z,0.00
2023-04-01T00:42:06.589Z,0.00
2023-04-01T00:43:06.675Z,0.00
2023-04-01T00:44:06.750Z,0.00
2023-04-01T00:45:06.837Z,0.00
2023-04-01T00:46:06.881Z,0.00
2023-04-01T00:47:07.156Z,0.00
2023-04-01T00:48:07.211Z,0.00
2023-04-01T00:49:07.153Z,0.00
2023-04-01T00:50:07.235Z,0.00
2023-04-01T00:51:07.313Z,0.00
2023-04-01T00:52:07.389Z,0.00
2023-04-01T00:53:07.493Z,0.00
2023-04-01T00:54:07.558Z,0.00
2023-04-01T00:55:07.634Z,0.00
2023-04-01T00:56:07.705Z,0.00
2023-04-01T00:57:07.882Z,0.00
2023-04-01T00:58:07.853Z,0.00
2023-04-01T00:59:07.921Z,0.00
2023-04-01T01:00:07.991Z,0.00
2023-04-01T01:01:08.079Z,0.00
2023-04-01T01:02:08.248Z,0.00
2023-04-01T01:03:08.312Z,0.00
2023-04-01T01:04:08.317Z,0.00
2023-04-01T01:05:08.395Z,0.00
2023-04-01T01:06:08.467Z,0.00
2023-04-01T01:07:08.554Z,0.00
2023-04-01T01:08:08.598Z,0.00
2023-04-01T01:09:08.704Z,0.00
2023-04-01T01:10:08.757Z,0.00
2023-04-01T01:11:08.952Z,0.00
2023-04-01T01:12:08.947Z,0.00
2023-04-01T01:13:09.012Z,0.00
2023-04-01T01:14:09.102Z,0.00
2023-04-01T01:15:09.188Z,0.00
2023-04-01T01:16:09.301Z,0.00
2023-04-01T01:17:09.391Z,0.00
2023-04-01T01:18:09.457Z,0.00
2023-04-01T01:19:09.508Z,0.00
2023-04-01T01:20:15.718Z,0.00
2023-04-01T01:21:09.672Z,0.00
2023-04-01T01:22:09.801Z,0.00
2023-04-01T01:23:09.826Z,0.00
2023-04-01T01:24:09.897Z,0.00
2023-04-01T01:25:09.986Z,0.00
2023-04-01T01:26:10.049Z,0.00
2023-04-01T01:27:10.152Z,0.00
2023-04-01T01:28:10.185Z,0.00
2023-04-01T01:29:10.278Z,0.00
2023-04-01T01:30:10.332Z,0.00
2023-04-01T01:31:10.429Z,0.00
2023-04-01T01:32:10.498Z,0.00
2023-04-01T01:33:10.591Z,0.00
2023-04-01T01:34:10.617Z,0.00
2023-04-01T01:35:10.709Z,0.00
2023-04-01T01:36:10.793Z,0.00
2023-04-01T01:37:10.877Z,0.00
2023-04-01T01:38:10.914Z,0.00
2023-04-01T01:39:11.011Z,0.00
2023-04-01T01:40:11.086Z,0.00
2023-04-01T01:41:11.179Z,0.00
2023-04-01T01:42:11.248Z,0.00
2023-04-01T01:43:11.340Z,0.00
2023-04-01T01:44:11.417Z,0.00
2023-04-01T01:45:11.520Z,0.00
2023-04-01T01:46:11.714Z,0.00
2023-04-01T01:47:11.698Z,0.00
2023-04-01T01:48:11.770Z,0.00
2023-04-01T01:49:11.831Z,0.00
2023-04-01T01:50:11.891Z,0.00
2023-04-01T01:51:11.983Z,0.00
2023-04-01T01:52:12.080Z,0.00
2023-04-01T01:53:12.141Z,0.00
2023-04-01T01:54:12.212Z,0.00
2023-04-01T01:55:12.300Z,0.00
2023-04-01T01:56:12.378Z,0.00
2023-04-01T01:57:12.539Z,0.00
2023-04-01T01:58:12.547Z,0.00
2023-04-01T01:59:12.639Z,0.00
2023-04-01T02:00:12.725Z,0.00
2023-04-01T02:01:12.869Z,0.00
2023-04-01T02:02:12.905Z,0.00
2023-04-01T02:03:12.953Z,0.00
2023-04-01T02:04:13.041Z,0.00
2023-04-01T02:05:13.108Z,0.00
2023-04-01T02:06:13.188Z,0.00
2023-04-01T02:07:13.299Z,0.00
2023-04-01T02:08:13.347Z,0.00
2023-04-01T02:09:13.438Z,0.00
2023-04-01T02:10:13.534Z,0.00
2023-04-01T02:11:13.597Z,0.00
2023-04-01T02:12:13.685Z,0.00
2023-04-01T02:13:13.738Z,0.00
2023-04-01T02:14:13.810Z,0.00
2023-04-01T02:15:13.890Z,0.00
2023-04-01T02:16:14.004Z,0.00
2023-04-01T02:17:14.063Z,0.00
2023-04-01T02:18:14.104Z,0.00
2023-04-01T02:19:14.240Z,0.00
2023-04-01T02:20:14.229Z,0.00
2023-04-01T02:21:14.329Z,0.00
2023-04-01T02:22:14.429Z,0.00
2023-04-01T02:23:14.491Z,0.00
2023-04-01T02:24:14.573Z,0.00
2023-04-01T02:25:14.660Z,0.00
2023-04-01T02:26:14.734Z,0.00
2023-04-01T02:27:14.846Z,0.00
2023-04-01T02:28:14.885Z,0.00
2023-04-01T02:29:14.991Z,0.00
2023-04-01T02:30:15.028Z,0.00
2023-04-01T02:31:15.143Z,0.00
2023-04-01T02:32:15.224Z,0.00
2023-04-01T02:33:15.268Z,0.00
2023-04-01T02:34:15.377Z,0.00
2023-04-01T02:35:15.461Z,0.00
2023-04-01T02:36:15.616Z,0.00
2023-04-01T02:37:15.646Z,0.00
2023-04-01T02:38:15.655Z,0.00
2023-04-01T02:39:15.736Z,0.00
2023-04-01T02:40:15.817Z,0.00
2023-04-01T02:41:15.883Z,0.00
2023-04-01T02:42:16.009Z,0.00
2023-04-01T02:43:16.076Z,0.00
2023-04-01T02:44:16.159Z,0.00
2023-04-01T02:45:16.269Z,0.00
2023-04-01T02:46:16.354Z,0.00
2023-04-01T02:47:16.409Z,0.00
2023-04-01T02:48:16.459Z,0.00
2023-04-01T02:49:16.550Z,0.00
2023-04-01T02:50:16.646Z,0.00
2023-04-01T02:51:18.321Z,0.00
2023-04-01T02:52:16.825Z,0.00
2023-04-01T02:53:16.868Z,0.00
2023-04-01T02:54:17.025Z,0.00
2023-04-01T02:55:17.046Z,0.00
2023-04-01T02:56:17.129Z,0.00
2023-04-01T02:57:17.241Z,0.00
2023-04-01T02:58:17.284Z,0.00
2023-04-01T02:59:17.361Z,0.00
2023-04-01T03:00:17.479Z,0.00
2023-04-01T03:01:17.547Z,0.00
2023-04-01T03:02:17.724Z,0.00
2023-04-01T03:03:17.764Z,0.00
2023-04-01T03:04:17.795Z,0.00
2023-04-01T03:05:17.862Z,0.00
2023-04-01T03:06:17.971Z,0.00
2023-04-01T03:07:18.052Z,0.00
2023-04-01T03:08:18.125Z,0.00
2023-04-01T03:09:18.236Z,0.00
2023-04-01T03:10:18.293Z,0.00
2023-04-01T03:11:18.369Z,0.00
2023-04-01T03:12:18.489Z,0.00
2023-04-01T03:13:18.544Z,0.00
2023-04-01T03:14:18.645Z,0.00
2023-04-01T03:15:18.707Z,0.00
2023-04-01T03:16:18.843Z,0.00
2023-04-01T03:17:18.928Z,0.00
2023-04-01T03:18:18.988Z,0.00
2023-04-01T03:19:19.070Z,0.00
2023-04-01T03:20:19.170Z,0.00
2023-04-01T03:21:19.241Z,0.00
2023-04-01T03:22:19.340Z,0.00
2023-04-01T03:23:19.382Z,0.00
2023-04-01T03:24:19.481Z,0.00
2023-04-01T03:25:19.574Z,0.00
2023-04-01T03:26:19.680Z,0.00
2023-04-01T03:27:19.764Z,0.00
2023-04-01T03:28:19.816Z,0.00
2023-04-01T03:29:19.891Z,0.00
2023-04-01T03:30:20.011Z,0.00
2023-04-01T03:31:22.387Z,0.00
2023-04-01T03:32:20.191Z,0.00
2023-04-01T03:33:20.240Z,0.00
2023-04-01T03:34:20.338Z,0.00
2023-04-01T03:35:20.389Z,0.00
2023-04-01T03:36:20.517Z,0.00
2023-04-01T03:37:20.566Z,0.00
2023-04-01T03:38:20.640Z,0.00
2023-04-01T03:39:20.704Z,0.00
2023-04-01T03:40:20.816Z,0.00
2023-04-01T03:41:20.903Z,0.00
2023-04-01T03:42:21.012Z,0.00
2023-04-01T03:43:21.049Z,0.00
2023-04-01T03:44:21.137Z,0.00
2023-04-01T03:45:21.224Z,0.00
2023-04-01T03:46:21.434Z,0.00
2023-04-01T03:47:21.396Z,0.00
2023-04-01T03:48:21.471Z,0.00
2023-04-01T03:49:21.523Z,0.00
2023-04-01T03:50:21.603Z,0.00
2023-04-01T03:51:21.693Z,0.00
2023-04-01T03:52:21.788Z,0.00
2023-04-01T03:53:21.833Z,0.00
2023-04-01T03:54:21.933Z,0.00
2023-04-01T03:55:22.015Z,0.00
2023-04-01T03:56:22.109Z,0.00
2023-04-01T03:57:22.256Z,0.00
2023-04-01T03:58:22.269Z,0.00
2023-04-01T03:59:22.333Z,0.00
2023-04-01T04:00:22.417Z,0.00
2023-04-01T04:01:22.487Z,0.00
2023-04-01T04:02:22.663Z,0.00
2023-04-01T04:03:22.816Z,0.00
2023-04-01T04:04:22.860Z,0.00
2023-04-01T04:05:22.821Z,0.00
2023-04-01T04:06:22.918Z,0.00
2023-04-01T04:07:23.028Z,0.00
2023-04-01T04:08:23.077Z,0.00
2023-04-01T04:09:23.159Z,0.00
2023-04-01T04:10:23.267Z,0.00
2023-04-01T04:11:23.329Z,0.00
2023-04-01T04:12:23.604Z,0.00
2023-04-01T04:13:23.503Z,0.00
2023-04-01T04:14:23.566Z,0.00
2023-04-01T04:15:23.661Z,0.00
2023-04-01T04:16:23.780Z,0.00
2023-04-01T04:17:23.850Z,0.00
2023-04-01T04:18:23.882Z,0.00
2023-04-01T04:19:23.973Z,0.00
2023-04-01T04:20:24.051Z,0.00
2023-04-01T04:21:24.149Z,0.00
2023-04-01T04:22:24.240Z,0.00
2023-04-01T04:23:24.336Z,0.00
2023-04-01T04:24:24.411Z,0.00
2023-04-01T04:25:24.501Z,0.00
2023-04-01T04:26:24.594Z,0.00
2023-04-01T04:27:24.680Z,0.00
2023-04-01T04:28:24.730Z,0.00
2023-04-01T04:29:24.823Z,0.00
2023-04-01T04:30:24.896Z,0.00
2023-04-01T04:31:24.995Z,0.00
2023-04-01T04:32:25.139Z,0.00
2023-04-01T04:33:25.138Z,0.00
2023-04-01T04:34:25.241Z,0.00
2023-04-01T04:35:25.312Z,0.00
2023-04-01T04:36:25.443Z,0.00
2023-04-01T04:37:25.528Z,0.00
2023-04-01T04:38:25.555Z,0.00
2023-04-01T04:39:25.648Z,0.00
2023-04-01T04:40:25.705Z,0.00
2023-04-01T04:41:25.792Z,0.00
2023-04-01T04:42:25.895Z,0.00
2023-04-01T04:43:25.978Z,0.00
2023-04-01T04:44:26.061Z,0.00
2023-04-01T04:45:26.148Z,0.00
2023-04-01T04:46:26.331Z,0.00
2023-04-01T04:47:26.306Z,0.00
2023-04-01T04:48:26.340Z,0.00
2023-04-01T04:49:26.427Z,0.00
2023-04-01T04:50:26.531Z,0.00
2023-04-01T04:51:26.589Z,0.00
2023-04-01T04:52:26.691Z,0.00
2023-04-01T04:53:26.788Z,0.00
2023-04-01T04:54:26.877Z,0.00
2023-04-01T04:55:26.982Z,0.00
2023-04-01T04:56:27.059Z,0.00
2023-04-01T04:57:27.212Z,0.00
2023-04-01T04:58:27.201Z,0.00
2023-04-01T04:59:27.297Z,0.00
2023-04-01T05:00:27.377Z,0.00
2023-04-01T05:01:27.514Z,0.00
2023-04-01T05:02:27.649Z,0.00
2023-04-01T05:03:27.727Z,0.00
2023-04-01T05:04:27.722Z,0.00
2023-04-01T05:05:27.814Z,0.00
2023-04-01T05:06:27.886Z,0.00
2023-04-01T05:07:27.999Z,0.00
2023-04-01T05:08:28.050Z,0.00
2023-04-01T05:09:28.139Z,0.00
2023-04-01T05:10:28.218Z,0.00
2023-04-01T05:11:28.294Z,0.00
2023-04-01T05:12:28.402Z,0.00
2023-04-01T05:13:28.497Z,0.00
2023-04-01T05:14:28.556Z,0.00
2023-04-01T05:15:28.646Z,0.00
2023-04-01T05:16:28.742Z,0.00
2023-04-01T05:17:28.890Z,5.62
2023-04-01T05:18:28.857Z,5.62
2023-04-01T05:19:28.955Z,5.62
2023-04-01T05:20:29.010Z,5.62
2023-04-01T05:21:29.090Z,5.62
2023-04-01T05:22:29.175Z,5.62
2023-04-01T05:23:29.247Z,5.62
2023-04-01T05:24:29.313Z,5.62
2023-04-01T05:25:29.387Z,5.62
2023-04-01T05:26:29.448Z,5.62
2023-04-01T05:27:29.541Z,5.62
2023-04-01T05:28:29.624Z,5.62
2023-04-01T05:29:29.690Z,5.62
2023-04-01T05:30:29.750Z,5.62
2023-04-01T05:31:29.887Z,5.62
2023-04-01T05:32:30.024Z,5.62
2023-04-01T05:33:30.067Z,11.25
2023-04-01T05:34:30.118Z,11.25
2023-04-01T05:35:30.264Z,11.25
2023-04-01T05:36:30.267Z,11.25
2023-04-01T05:37:30.380Z,11.25
2023-04-01T05:38:30.410Z,11.25
2023-04-01T05:39:30.504Z,11.25
2023-04-01T05:40:30.577Z,11.25
2023-04-01T05:41:30.655Z,11.25
2023-04-01T05:42:30.750Z,16.88
2023-04-01T05:43:30.841Z,16.88
2023-04-01T05:44:30.917Z,16.88
2023-04-01T05:45:31.321Z,16.88
2023-04-01T05:46:31.115Z,22.50
2023-04-01T05:47:31.257Z,22.50
2023-04-01T05:48:31.294Z,28.12
2023-04-01T05:49:31.353Z,28.12
2023-04-01T05:50:31.418Z,33.75
2023-04-01T05:51:31.496Z,33.75
2023-04-01T05:52:31.569Z,33.75
2023-04-01T05:53:31.656Z,33.75
2023-04-01T05:54:31.707Z,39.38
2023-04-01T05:55:32.031Z,39.38
2023-04-01T05:56:31.851Z,45.00
2023-04-01T05:57:32.033Z,50.62
2023-04-01T05:58:32.020Z,50.62
2023-04-01T05:59:32.116Z,50.62
2023-04-01T06:00:32.174Z,50.62
2023-04-01T06:01:32.236Z,56.25
2023-04-01T06:02:32.364Z,56.25
2023-04-01T06:03:32.518Z,56.25
2023-04-01T06:04:32.524Z,50.62
2023-04-01T06:05:32.756Z,50.62
2023-04-01T06:06:32.601Z,50.62
2023-04-01T06:07:32.723Z,50.62
2023-04-01T06:08:32.803Z,45.00
2023-04-01T06:09:32.838Z,45.00
2023-04-01T06:10:32.905Z,45.00
2023-04-01T06:11:32.984Z,45.00
2023-04-01T06:12:33.063Z,50.62
2023-04-01T06:13:33.135Z,50.62
2023-04-01T06:14:33.205Z,50.62
2023-04-01T06:15:33.518Z,56.25
2023-04-01T06:16:33.395Z,50.62
2023-04-01T06:17:33.469Z,50.62
2023-04-01T06:18:33.505Z,50.62
2023-04-01T06:19:33.590Z,50.62
2023-04-01T06:20:33.682Z,50.62
2023-04-01T06:21:33.754Z,50.62
2023-04-01T06:22:33.836Z,56.25
2023-04-01T06:23:33.899Z,61.88
2023-04-01T06:24:33.968Z,67.50
2023-04-01T06:25:34.309Z,67.50
2023-04-01T06:26:34.114Z,73.12
2023-04-01T06:27:34.247Z,78.75
2023-04-01T06:28:34.264Z,73.12
2023-04-01T06:29:34.355Z,78.75
2023-04-01T06:30:34.429Z,73.12
2023-04-01T06:31:34.564Z,67.50
2023-04-01T06:32:34.674Z,56.25
2023-04-01T06:33:34.700Z,56.25
2023-04-01T06:34:34.761Z,45.00
2023-04-01T06:35:35.183Z,45.00
2023-04-01T06:36:34.950Z,45.00
2023-04-01T06:37:35.209Z,45.00
2023-04-01T06:38:35.086Z,45.00
2023-04-01T06:39:35.166Z,45.00
2023-04-01T06:40:35.254Z,39.38
2023-04-01T06:41:35.357Z,33.75
2023-04-01T06:42:35.440Z,33.75
2023-04-01T06:43:35.513Z,33.75
2023-04-01T06:44:35.601Z,39.38
2023-04-01T06:45:35.937Z,45.00
2023-04-01T06:46:35.761Z,56.25
2023-04-01T06:47:35.867Z,61.88
2023-04-01T06:48:35.904Z,73.12
2023-04-01T06:49:35.987Z,73.12
2023-04-01T06:50:36.048Z,67.50
2023-04-01T06:51:36.123Z,67.50
2023-04-01T06:52:36.211Z,61.88
2023-04-01T06:53:36.386Z,61.88
2023-04-01T06:54:36.337Z,67.50
2023-04-01T06:55:36.414Z,78.75
2023-04-01T06:56:36.484Z,90.00
2023-04-01T06:57:36.598Z,101.25
2023-04-01T06:58:36.650Z,101.25
2023-04-01T06:59:36.735Z,106.88
2023-04-01T07:00:36.804Z,118.12
2023-04-01T07:01:36.920Z,140.62
2023-04-01T07:02:37.005Z,151.88
2023-04-01T07:03:37.047Z,174.38
2023-04-01T07:04:37.228Z,225.00
2023-04-01T07:05:37.243Z,241.88
2023-04-01T07:06:37.314Z,253.12
2023-04-01T07:07:37.430Z,247.50
2023-04-01T07:08:37.481Z,213.75
2023-04-01T07:09:37.545Z,168.75
2023-04-01T07:10:37.608Z,146.25
2023-04-01T07:11:37.681Z,146.25
2023-04-01T07:12:37.763Z,140.62
2023-04-01T07:13:37.817Z,151.88
2023-04-01T07:14:37.877Z,157.50
2023-04-01T07:15:37.968Z,168.75
2023-04-01T07:16:38.049Z,180.00
2023-04-01T07:17:38.153Z,196.88
2023-04-01T07:18:38.228Z,208.12
2023-04-01T07:19:38.311Z,208.12
2023-04-01T07:20:38.345Z,213.75
2023-04-01T07:21:38.441Z,230.62
2023-04-01T07:22:38.514Z,236.25
2023-04-01T07:23:38.575Z,219.38
2023-04-01T07:24:38.661Z,213.75
2023-04-01T07:25:38.755Z,202.50
2023-04-01T07:26:38.822Z,196.88
2023-04-01T07:27:38.933Z,196.88
2023-04-01T07:28:38.969Z,191.25
2023-04-01T07:29:39.073Z,180.00
2023-04-01T07:30:39.131Z,157.50
2023-04-01T07:31:39.331Z,129.38
2023-04-01T07:32:39.342Z,118.12
2023-04-01T07:33:39.371Z,101.25
2023-04-01T07:34:39.419Z,95.62
2023-04-01T07:35:39.522Z,95.62
2023-04-01T07:36:39.596Z,101.25
2023-04-01T07:37:39.716Z,106.88
2023-04-01T07:38:39.799Z,118.12
2023-04-01T07:39:39.851Z,129.38
2023-04-01T07:40:39.924Z,140.62
2023-04-01T07:41:39.998Z,151.88
2023-04-01T07:42:40.066Z,174.38
2023-04-01T07:43:40.122Z,196.88
2023-04-01T07:44:40.209Z,208.12
2023-04-01T07:45:40.310Z,208.12
2023-04-01T07:46:40.442Z,213.75
2023-04-01T07:47:40.496Z,202.50
2023-04-01T07:48:40.504Z,191.25
2023-04-01T07:49:40.603Z,180.00
2023-04-01T07:50:40.652Z,174.38
2023-04-01T07:51:40.740Z,174.38
2023-04-01T07:52:40.842Z,168.75
2023-04-01T07:53:40.890Z,168.75
2023-04-01T07:54:40.945Z,174.38
2023-04-01T07:55:41.035Z,174.38
2023-04-01T07:56:41.090Z,185.62
2023-04-01T07:57:41.209Z,196.88
2023-04-01T07:58:41.247Z,202.50
2023-04-01T07:59:41.342Z,208.12
2023-04-01T08:00:41.405Z,213.75
2023-04-01T08:01:41.499Z,208.12
2023-04-01T08:02:41.640Z,196.88
2023-04-01T08:03:41.712Z,191.25
2023-04-01T08:04:41.767Z,191.25
2023-04-01T08:05:43.457Z,185.62
2023-04-01T08:06:41.843Z,185.62
2023-04-01T08:07:41.951Z,191.25
2023-04-01T08:08:41.992Z,196.88
2023-04-01T08:09:42.088Z,202.50
2023-04-01T08:10:42.174Z,208.12
2023-04-01T08:11:43.681Z,219.38
2023-04-01T08:12:42.312Z,208.12
2023-04-01T08:13:42.392Z,213.75
2023-04-01T08:14:42.485Z,219.38
2023-04-01T08:15:42.558Z,247.50
2023-04-01T08:16:42.675Z,225.00
2023-04-01T08:17:42.800Z,213.75
2023-04-01T08:18:42.804Z,208.12
2023-04-01T08:19:42.872Z,219.38
2023-04-01T08:20:42.955Z,219.38
2023-04-01T08:21:43.034Z,236.25
2023-04-01T08:22:43.153Z,230.62
2023-04-01T08:23:43.181Z,230.62
2023-04-01T08:24:47.646Z,213.75
2023-04-01T08:25:43.350Z,202.50
2023-04-01T08:26:43.432Z,208.12
2023-04-01T08:27:43.547Z,196.88
2023-04-01T08:28:43.590Z,202.50
2023-04-01T08:29:43.675Z,236.25
2023-04-01T08:30:43.752Z,264.38
2023-04-01T08:31:43.834Z,298.12
2023-04-01T08:32:43.944Z,298.12
2023-04-01T08:33:43.974Z,270.00
2023-04-01T08:34:44.061Z,303.75
2023-04-01T08:35:44.572Z,315.00
2023-04-01T08:36:44.225Z,264.38
2023-04-01T08:37:44.318Z,258.75
2023-04-01T08:38:44.394Z,241.88
2023-04-01T08:39:44.463Z,247.50
2023-04-01T08:40:44.542Z,213.75
2023-04-01T08:41:44.622Z,208.12
2023-04-01T08:42:44.717Z,236.25
2023-04-01T08:43:44.809Z,236.25
2023-04-01T08:44:44.873Z,202.50
2023-04-01T08:45:45.039Z,208.12
2023-04-01T08:46:45.035Z,208.12
2023-04-01T08:47:45.187Z,225.00
2023-04-01T08:48:45.198Z,225.00
2023-04-01T08:49:45.277Z,241.88
2023-04-01T08:50:45.365Z,253.12
2023-04-01T08:51:45.452Z,264.38
2023-04-01T08:52:45.543Z,270.00
2023-04-01T08:53:45.610Z,258.75
2023-04-01T08:54:45.694Z,258.75
2023-04-01T08:55:45.785Z,264.38
2023-04-01T08:56:45.871Z,270.00
2023-04-01T08:57:45.973Z,281.25
2023-04-01T08:58:46.040Z,298.12
2023-04-01T08:59:46.118Z,309.38
2023-04-01T09:00:46.190Z,303.75
2023-04-01T09:01:46.253Z,303.75
2023-04-01T09:02:46.473Z,315.00
2023-04-01T09:03:46.627Z,315.00
2023-04-01T09:04:46.549Z,315.00
2023-04-01T09:05:46.661Z,309.38
2023-04-01T09:06:46.709Z,303.75
2023-04-01T09:07:46.816Z,309.38
2023-04-01T09:08:46.896Z,292.50
2023-04-01T09:09:46.973Z,315.00
2023-04-01T09:10:47.044Z,320.62
2023-04-01T09:11:47.124Z,309.38
2023-04-01T09:12:47.227Z,326.25
2023-04-01T09:13:47.280Z,270.00
2023-04-01T09:14:47.388Z,270.00
2023-04-01T09:15:47.500Z,275.62
2023-04-01T09:16:47.544Z,270.00
2023-04-01T09:17:47.659Z,309.38
2023-04-01T09:18:47.699Z,298.12
2023-04-01T09:19:47.791Z,270.00
2023-04-01T09:20:47.899Z,253.12
2023-04-01T09:21:47.960Z,253.12
2023-04-01T09:22:48.094Z,298.12
2023-04-01T09:23:48.155Z,315.00
2023-04-01T09:24:48.274Z,298.12
2023-04-01T09:25:48.349Z,331.88
2023-04-01T09:26:48.442Z,365.62
2023-04-01T09:27:48.568Z,371.25
2023-04-01T09:28:48.615Z,365.62
2023-04-01T09:29:48.687Z,444.38
2023-04-01T09:30:48.770Z,444.38
2023-04-01T09:31:48.927Z,427.50
2023-04-01T09:32:48.937Z,416.25
2023-04-01T09:33:48.956Z,388.12
2023-04-01T09:34:49.027Z,320.62
2023-04-01T09:35:49.113Z,360.00
2023-04-01T09:36:49.195Z,393.75
2023-04-01T09:37:49.282Z,382.50
2023-04-01T09:38:49.352Z,348.75
2023-04-01T09:39:49.408Z,315.00
2023-04-01T09:40:49.524Z,275.62
2023-04-01T09:41:49.583Z,286.88
2023-04-01T09:42:49.738Z,320.62
2023-04-01T09:43:49.771Z,303.75
2023-04-01T09:44:49.870Z,331.88
2023-04-01T09:45:49.947Z,337.50
2023-04-01T09:46:50.060Z,326.25
2023-04-01T09:47:50.163Z,326.25
2023-04-01T09:48:50.154Z,303.75
2023-04-01T09:49:50.254Z,298.12
2023-04-01T09:50:50.360Z,320.62
2023-04-01T09:51:50.408Z,320.62
2023-04-01T09:52:50.535Z,315.00
2023-04-01T09:53:50.597Z,298.12
2023-04-01T09:54:50.714Z,275.62
2023-04-01T09:55:50.791Z,309.38
2023-04-01T09:56:50.902Z,326.25
2023-04-01T09:57:51.048Z,376.88
2023-04-01T09:58:51.038Z,354.38
2023-04-01T09:59:51.133Z,360.00
2023-04-01T10:00:51.232Z,320.62
2023-04-01T10:01:51.388Z,298.12
2023-04-01T10:02:51.461Z,309.38
2023-04-01T10:03:51.466Z,326.25
2023-04-01T10:04:51.559Z,309.38
2023-04-01T10:05:51.695Z,309.38
2023-04-01T10:06:51.746Z,303.75
2023-04-01T10:07:51.865Z,343.12
2023-04-01T10:08:51.917Z,309.38
2023-04-01T10:09:51.973Z,365.62
2023-04-01T10:10:52.080Z,405.00
2023-04-01T10:11:52.166Z,416.25
2023-04-01T10:12:52.256Z,427.50
2023-04-01T10:13:52.324Z,433.12
2023-04-01T10:14:52.398Z,472.50
2023-04-01T10:15:52.508Z,517.50
2023-04-01T10:16:54.171Z,523.12
2023-04-01T10:17:52.691Z,523.12
2023-04-01T10:18:52.769Z,551.25
2023-04-01T10:19:52.851Z,556.88
2023-04-01T10:20:52.936Z,540.00
2023-04-01T10:21:53.028Z,528.75
2023-04-01T10:22:53.145Z,551.25
2023-04-01T10:23:53.188Z,641.25
2023-04-01T10:24:53.270Z,686.25
2023-04-01T10:25:53.352Z,658.12
2023-04-01T10:26:53.449Z,641.25
2023-04-01T10:27:53.543Z,635.62
2023-04-01T10:28:53.638Z,624.38
2023-04-01T10:29:53.723Z,562.50
2023-04-01T10:30:53.820Z,545.62
2023-04-01T10:31:53.932Z,562.50
2023-04-01T10:32:54.042Z,556.88
2023-04-01T10:33:54.050Z,652.50
2023-04-01T10:34:54.133Z,742.50
2023-04-01T10:35:54.260Z,641.25
2023-04-01T10:36:54.317Z,495.00
2023-04-01T10:37:54.376Z,511.88
2023-04-01T10:38:54.451Z,450.00
2023-04-01T10:39:54.539Z,393.75
2023-04-01T10:40:54.609Z,360.00
2023-04-01T10:41:54.686Z,331.88
2023-04-01T10:42:54.821Z,320.62
2023-04-01T10:43:54.867Z,298.12
2023-04-01T10:44:54.976Z,292.50
2023-04-01T10:45:55.065Z,264.38
2023-04-01T10:46:55.138Z,247.50
2023-04-01T10:47:55.275Z,298.12
2023-04-01T10:48:55.304Z,348.75
2023-04-01T10:49:55.369Z,433.12
2023-04-01T10:50:55.441Z,528.75
2023-04-01T10:51:55.506Z,534.38
2023-04-01T10:52:55.599Z,579.38
2023-04-01T10:53:55.670Z,613.12
2023-04-01T10:54:55.740Z,573.75
2023-04-01T10:55:55.803Z,556.88
2023-04-01T10:56:55.941Z,483.75
2023-04-01T10:57:55.959Z,433.12
2023-04-01T10:58:56.044Z,433.12
2023-04-01T10:59:56.099Z,376.88
2023-04-01T11:00:56.228Z,382.50
2023-04-01T11:02:10.035Z,495.00
2023-04-01T11:02:56.454Z,438.75
2023-04-01T11:03:56.494Z,365.62
2023-04-01T11:04:56.553Z,433.12
2023-04-01T11:05:56.628Z,528.75
2023-04-01T11:06:56.710Z,495.00
2023-04-01T11:08:05.904Z,450.00
2023-04-01T11:08:56.883Z,365.62
2023-04-01T11:09:56.933Z,382.50
2023-04-01T11:10:57.056Z,444.38
2023-04-01T11:11:57.105Z,545.62
2023-04-01T11:12:57.244Z,427.50
2023-04-01T11:13:57.272Z,433.12
2023-04-01T11:14:57.372Z,461.25
2023-04-01T11:15:57.480Z,500.62
2023-04-01T11:16:57.538Z,523.12
2023-04-01T11:17:57.669Z,540.00
2023-04-01T11:18:57.716Z,466.88
2023-04-01T11:19:57.777Z,472.50
2023-04-01T11:20:57.852Z,495.00
2023-04-01T11:21:57.923Z,427.50
2023-04-01T11:22:58.024Z,483.75
2023-04-01T11:24:04.985Z,466.88
2023-04-01T11:24:58.190Z,551.25
2023-04-01T11:25:58.253Z,568.12
2023-04-01T11:26:58.377Z,534.38
2023-04-01T11:27:58.409Z,534.38
2023-04-01T11:28:58.488Z,573.75
2023-04-01T11:30:00.571Z,590.62
2023-04-01T11:30:58.694Z,545.62
2023-04-01T11:31:58.698Z,635.62
2023-04-01T11:32:58.836Z,635.62
2023-04-01T11:33:58.858Z,641.25
2023-04-01T11:34:58.950Z,669.38
2023-04-01T11:35:59.022Z,731.25
2023-04-01T11:36:59.167Z,691.88
2023-04-01T11:37:59.304Z,641.25
2023-04-01T11:38:59.280Z,641.25
2023-04-01T11:39:59.363Z,630.00
2023-04-01T11:40:59.461Z,635.62
2023-04-01T11:41:59.538Z,601.88
2023-04-01T11:42:59.661Z,624.38
2023-04-01T11:43:59.699Z,624.38
2023-04-01T11:44:59.794Z,691.88
2023-04-01T11:45:59.888Z,675.00
2023-04-01T11:46:59.949Z,669.38
2023-04-01T11:48:00.102Z,776.25
2023-04-01T11:49:00.153Z,815.62
2023-04-01T11:50:00.178Z,793.12
2023-04-01T11:51:00.264Z,658.12
2023-04-01T11:52:00.331Z,652.50
2023-04-01T11:53:00.447Z,703.12
2023-04-01T11:54:00.524Z,686.25
2023-04-01T11:55:00.613Z,675.00
2023-04-01T11:56:00.686Z,658.12
2023-04-01T11:57:00.841Z,545.62
2023-04-01T11:58:00.864Z,472.50
2023-04-01T11:59:00.932Z,506.25
2023-04-01T12:00:01.001Z,517.50
2023-04-01T12:01:01.091Z,545.62
2023-04-01T12:02:01.160Z,540.00
2023-04-01T12:03:01.334Z,517.50
2023-04-01T12:04:01.457Z,511.88
2023-04-01T12:05:01.447Z,540.00
2023-04-01T12:06:01.465Z,568.12
2023-04-01T12:07:01.553Z,562.50
2023-04-01T12:08:01.638Z,517.50
2023-04-01T12:09:01.727Z,438.75
2023-04-01T12:10:01.791Z,365.62
2023-04-01T12:11:01.936Z,433.12
2023-04-01T12:12:01.961Z,568.12
2023-04-01T12:13:02.286Z,641.25
2023-04-01T12:14:02.119Z,658.12
2023-04-01T12:15:02.212Z,641.25
2023-04-01T12:16:02.325Z,607.50
2023-04-01T12:17:02.366Z,573.75
2023-04-01T12:18:02.486Z,551.25
2023-04-01T12:19:02.553Z,528.75
2023-04-01T12:20:02.656Z,517.50
2023-04-01T12:21:02.722Z,506.25
2023-04-01T12:22:02.809Z,483.75
2023-04-01T12:23:03.247Z,461.25
2023-04-01T12:24:03.011Z,438.75
2023-04-01T12:25:03.094Z,405.00
2023-04-01T12:26:03.158Z,371.25
2023-04-01T12:27:03.260Z,348.75
2023-04-01T12:28:03.372Z,331.88
2023-04-01T12:29:03.436Z,309.38
2023-04-01T12:30:03.514Z,292.50
2023-04-01T12:31:03.619Z,286.88
2023-04-01T12:32:03.718Z,275.62
2023-04-01T12:33:03.828Z,270.00
2023-04-01T12:34:03.886Z,264.38
2023-04-01T12:35:03.940Z,264.38
2023-04-01T12:36:04.092Z,264.38
2023-04-01T12:37:04.107Z,264.38
2023-04-01T12:38:04.188Z,270.00
2023-04-01T12:39:04.236Z,275.62
2023-04-01T12:40:04.353Z,281.25
2023-04-01T12:41:04.421Z,281.25
2023-04-01T12:42:04.472Z,281.25
2023-04-01T12:43:04.596Z,286.88
2023-04-01T12:44:04.652Z,286.88
2023-04-01T12:45:04.740Z,298.12
2023-04-01T12:46:04.890Z,303.75
2023-04-01T12:47:04.917Z,309.38
2023-04-01T12:48:05.088Z,315.00
2023-04-01T12:49:05.066Z,315.00
2023-04-01T12:50:05.176Z,309.38
2023-04-01T12:51:05.245Z,298.12
2023-04-01T12:52:05.331Z,292.50
2023-04-01T12:53:05.452Z,281.25